sensor_id;sensor_type;location;lat;lon;timestamp;temperature;humidity
38239;DHT22;24035;48.900;9.188;2023-01-15T00:01:34;11.00;99.90
38239;DHT22;24035;48.900;9.188;2023-01-15T00:04:00;11.00;99.90
38239;DHT22;24035;48.900;9.188;2023-01-15T00:06:28;11.00;99.90
38239;DHT22;24035;48.900;9.188;2023-01-15T00:08:55;11.00;99.90
38239;DHT22;24035;48.900;9.188;2023-01-15T00:11:21;11.00;99.90
38239;DHT22;24035;48.900;9.188;2023-01-15T00:13:47;11.00;99.90
38239;DHT22;24035;48.900;9.188;2023-01-15T00:16:19;11.10;99.90
38239;DHT22;24035;48.900;9.188;2023-01-15T00:18:55;11.10;99.90
38239;DHT22;24035;48.900;9.188;2023-01-15T00:21:23;11.00;1.00
38239;DHT22;24035;48.900;9.188;2023-01-15T00:23:49;10.90;1.00
38239;DHT22;24035;48.900;9.188;2023-01-15T00:26:34;10.80;1.00
38239;DHT22;24035;48.900;9.188;2023-01-15T00:29:20;10.80;1.00
38239;DHT22;24035;48.900;9.188;2023-01-15T00:32:06;10.80;1.00
38239;DHT22;24035;48.900;9.188;2023-01-15T00:34:32;10.90;1.00
38239;DHT22;24035;48.900;9.188;2023-01-15T00:36:58;11.00;1.00
38239;DHT22;24035;48.900;9.188;2023-01-15T00:39:24;11.00;99.90
38239;DHT22;24035;48.900;9.188;2023-01-15T00:41:51;11.10;99.90
38239;DHT22;24035;48.900;9.188;2023-01-15T00:44:17;11.10;99.90
38239;DHT22;24035;48.900;9.188;2023-01-15T00:46:43;11.10;99.90
38239;DHT22;24035;48.900;9.188;2023-01-15T00:49:09;11.10;99.90
38239;DHT22;24035;48.900;9.188;2023-01-15T00:51:34;11.10;99.90
38239;DHT22;24035;48.900;9.188;2023-01-15T00:54:00;11.10;99.90
38239;DHT22;24035;48.900;9.188;2023-01-15T00:56:27;11.20;99.90
38239;DHT22;24035;48.900;9.188;2023-01-15T00:58:52;11.20;99.90
38239;DHT22;24035;48.900;9.188;2023-01-15T01:01:18;11.30;99.90
38239;DHT22;24035;48.900;9.188;2023-01-15T01:03:44;11.30;99.90
38239;DHT22;24035;48.900;9.188;2023-01-15T01:06:14;11.20;99.90
38239;DHT22;24035;48.900;9.188;2023-01-15T01:08:41;11.20;99.90
38239;DHT22;24035;48.900;9.188;2023-01-15T01:11:09;11.20;99.90
38239;DHT22;24035;48.900;9.188;2023-01-15T01:13:36;11.10;1.00
38239;DHT22;24035;48.900;9.188;2023-01-15T01:16:02;11.00;1.00
38239;DHT22;24035;48.900;9.188;2023-01-15T01:18:28;11.00;1.00
38239;DHT22;24035;48.900;9.188;2023-01-15T01:20:54;11.00;1.00
38239;DHT22;24035;48.900;9.188;2023-01-15T01:23:22;11.00;1.00
38239;DHT22;24035;48.900;9.188;2023-01-15T01:25:48;11.10;1.00
38239;DHT22;24035;48.900;9.188;2023-01-15T01:28:13;11.10;99.90
38239;DHT22;24035;48.900;9.188;2023-01-15T01:30:39;11.20;99.90
38239;DHT22;24035;48.900;9.188;2023-01-15T01:33:05;11.20;99.90
38239;DHT22;24035;48.900;9.188;2023-01-15T01:35:31;11.20;99.90
38239;DHT22;24035;48.900;9.188;2023-01-15T01:37:57;11.30;99.90
38239;DHT22;24035;48.900;9.188;2023-01-15T01:40:22;11.40;99.90
38239;DHT22;24035;48.900;9.188;2023-01-15T01:42:48;11.40;47.10
38239;DHT22;24035;48.900;9.188;2023-01-15T01:45:32;11.50;1.00
38239;DHT22;24035;48.900;9.188;2023-01-15T01:48:01;11.60;1.00
38239;DHT22;24035;48.900;9.188;2023-01-15T01:50:29;11.70;1.00
38239;DHT22;24035;48.900;9.188;2023-01-15T01:52:59;11.70;1.00
38239;DHT22;24035;48.900;9.188;2023-01-15T01:55:28;11.70;1.00
38239;DHT22;24035;48.900;9.188;2023-01-15T01:57:57;11.70;1.00
38239;DHT22;24035;48.900;9.188;2023-01-15T02:00:24;11.70;1.00
38239;DHT22;24035;48.900;9.188;2023-01-15T02:02:50;11.70;1.00
38239;DHT22;24035;48.900;9.188;2023-01-15T02:05:32;11.80;1.00
38239;DHT22;24035;48.900;9.188;2023-01-15T02:07:59;11.80;1.00
38239;DHT22;24035;48.900;9.188;2023-01-15T02:10:24;11.80;1.00
38239;DHT22;24035;48.900;9.188;2023-01-15T02:13:45;11.90;1.00
38239;DHT22;24035;48.900;9.188;2023-01-15T02:15:59;11.80;1.00
38239;DHT22;24035;48.900;9.188;2023-01-15T02:18:39;11.80;1.00
38239;DHT22;24035;48.900;9.188;2023-01-15T02:21:16;11.80;1.00
38239;DHT22;24035;48.900;9.188;2023-01-15T02:29:12;11.90;1.00
38239;DHT22;24035;48.900;9.188;2023-01-15T02:31:42;11.90;1.00
38239;DHT22;24035;48.900;9.188;2023-01-15T02:36:47;11.90;1.00
38239;DHT22;24035;48.900;9.188;2023-01-15T02:39:16;11.90;1.00
38239;DHT22;24035;48.900;9.188;2023-01-15T02:41:53;11.90;23.60
38239;DHT22;24035;48.900;9.188;2023-01-15T02:44:21;11.90;91.50
38239;DHT22;24035;48.900;9.188;2023-01-15T02:46:48;11.80;99.90
38239;DHT22;24035;48.900;9.188;2023-01-15T02:49:17;11.70;99.90
38239;DHT22;24035;48.900;9.188;2023-01-15T02:54:31;11.70;1.00
38239;DHT22;24035;48.900;9.188;2023-01-15T02:57:01;11.60;1.00
38239;DHT22;24035;48.900;9.188;2023-01-15T02:59:41;11.60;1.00
38239;DHT22;24035;48.900;9.188;2023-01-15T03:02:17;11.60;1.00
38239;DHT22;24035;48.900;9.188;2023-01-15T03:04:54;11.60;1.00
38239;DHT22;24035;48.900;9.188;2023-01-15T03:10:02;11.70;1.00
38239;DHT22;24035;48.900;9.188;2023-01-15T03:12:29;11.70;1.00
38239;DHT22;24035;48.900;9.188;2023-01-15T03:15:11;11.70;1.00
38239;DHT22;24035;48.900;9.188;2023-01-15T03:17:58;11.80;99.90
38239;DHT22;24035;48.900;9.188;2023-01-15T03:20:28;11.80;99.90
38239;DHT22;24035;48.900;9.188;2023-01-15T03:22:58;11.90;99.90
38239;DHT22;24035;48.900;9.188;2023-01-15T03:25:28;11.90;99.90
38239;DHT22;24035;48.900;9.188;2023-01-15T03:27:58;11.90;99.90
38239;DHT22;24035;48.900;9.188;2023-01-15T03:30:26;11.90;99.90
38239;DHT22;24035;48.900;9.188;2023-01-15T03:32:53;11.90;99.90
38239;DHT22;24035;48.900;9.188;2023-01-15T03:38:13;12.00;99.90
38239;DHT22;24035;48.900;9.188;2023-01-15T03:43:39;12.00;99.90
38239;DHT22;24035;48.900;9.188;2023-01-15T03:46:13;12.00;98.90
38239;DHT22;24035;48.900;9.188;2023-01-15T03:49:02;12.10;77.80
38239;DHT22;24035;48.900;9.188;2023-01-15T03:51:42;12.10;1.00
38239;DHT22;24035;48.900;9.188;2023-01-15T03:54:21;12.20;1.00
38239;DHT22;24035;48.900;9.188;2023-01-15T03:56:57;12.20;1.00
38239;DHT22;24035;48.900;9.188;2023-01-15T04:02:18;12.10;95.80
38239;DHT22;24035;48.900;9.188;2023-01-15T04:04:45;12.00;99.90
38239;DHT22;24035;48.900;9.188;2023-01-15T04:07:11;12.00;99.90
38239;DHT22;24035;48.900;9.188;2023-01-15T04:09:38;12.00;99.90
38239;DHT22;24035;48.900;9.188;2023-01-15T04:12:04;12.00;99.90
38239;DHT22;24035;48.900;9.188;2023-01-15T04:14:30;12.00;33.00
38239;DHT22;24035;48.900;9.188;2023-01-15T04:16:56;12.10;1.00
38239;DHT22;24035;48.900;9.188;2023-01-15T04:19:22;12.20;1.00
38239;DHT22;24035;48.900;9.188;2023-01-15T04:21:47;12.20;1.00
38239;DHT22;24035;48.900;9.188;2023-01-15T04:24:13;12.20;1.00
38239;DHT22;24035;48.900;9.188;2023-01-15T04:26:39;12.20;1.00
38239;DHT22;24035;48.900;9.188;2023-01-15T04:29:04;12.30;1.00
38239;DHT22;24035;48.900;9.188;2023-01-15T04:31:30;12.30;1.00
38239;DHT22;24035;48.900;9.188;2023-01-15T04:33:58;12.30;1.00
38239;DHT22;24035;48.900;9.188;2023-01-15T04:36:24;12.30;1.00
38239;DHT22;24035;48.900;9.188;2023-01-15T04:38:49;12.30;1.00
38239;DHT22;24035;48.900;9.188;2023-01-15T04:41:15;12.30;1.00
38239;DHT22;24035;48.900;9.188;2023-01-15T04:43:59;12.30;1.00
38239;DHT22;24035;48.900;9.188;2023-01-15T04:46:36;12.20;1.00
38239;DHT22;24035;48.900;9.188;2023-01-15T04:49:03;12.20;1.00
38239;DHT22;24035;48.900;9.188;2023-01-15T04:51:28;12.10;1.00
38239;DHT22;24035;48.900;9.188;2023-01-15T04:53:54;12.10;46.20
38239;DHT22;24035;48.900;9.188;2023-01-15T04:56:20;12.00;99.90
38239;DHT22;24035;48.900;9.188;2023-01-15T04:58:46;11.90;99.90
38239;DHT22;24035;48.900;9.188;2023-01-15T05:01:13;11.80;1.00
38239;DHT22;24035;48.900;9.188;2023-01-15T05:03:39;11.70;1.00
38239;DHT22;24035;48.900;9.188;2023-01-15T05:06:05;11.70;1.00
38239;DHT22;24035;48.900;9.188;2023-01-15T05:08:31;11.50;99.90
38239;DHT22;24035;48.900;9.188;2023-01-15T05:11:01;10.50;99.90
38239;DHT22;24035;48.900;9.188;2023-01-15T05:13:28;9.60;99.90
38239;DHT22;24035;48.900;9.188;2023-01-15T05:15:54;9.20;99.90
38239;DHT22;24035;48.900;9.188;2023-01-15T05:18:20;9.00;1.00
38239;DHT22;24035;48.900;9.188;2023-01-15T05:20:45;8.90;99.90
38239;DHT22;24035;48.900;9.188;2023-01-15T05:23:11;8.70;1.00
38239;DHT22;24035;48.900;9.188;2023-01-15T05:25:37;8.60;1.00
38239;DHT22;24035;48.900;9.188;2023-01-15T05:28:03;8.40;1.00
38239;DHT22;24035;48.900;9.188;2023-01-15T05:30:28;8.30;1.00
38239;DHT22;24035;48.900;9.188;2023-01-15T05:32:54;8.30;99.90
38239;DHT22;24035;48.900;9.188;2023-01-15T05:35:20;8.20;99.90
38239;DHT22;24035;48.900;9.188;2023-01-15T05:37:45;8.10;99.90
38239;DHT22;24035;48.900;9.188;2023-01-15T05:40:11;8.10;81.80
38239;DHT22;24035;48.900;9.188;2023-01-15T05:42:37;8.00;1.00
38239;DHT22;24035;48.900;9.188;2023-01-15T05:45:03;7.90;1.00
38239;DHT22;24035;48.900;9.188;2023-01-15T05:47:29;7.80;1.00
38239;DHT22;24035;48.900;9.188;2023-01-15T05:49:54;7.80;1.00
38239;DHT22;24035;48.900;9.188;2023-01-15T05:52:20;7.70;1.00
38239;DHT22;24035;48.900;9.188;2023-01-15T05:54:48;7.60;1.00
38239;DHT22;24035;48.900;9.188;2023-01-15T05:57:14;7.60;99.90
38239;DHT22;24035;48.900;9.188;2023-01-15T05:59:40;7.60;99.90
38239;DHT22;24035;48.900;9.188;2023-01-15T06:02:05;7.50;99.90
38239;DHT22;24035;48.900;9.188;2023-01-15T06:04:31;7.60;1.00
38239;DHT22;24035;48.900;9.188;2023-01-15T06:06:56;7.50;1.00
38239;DHT22;24035;48.900;9.188;2023-01-15T06:09:23;7.50;1.00
38239;DHT22;24035;48.900;9.188;2023-01-15T06:11:49;7.50;1.00
38239;DHT22;24035;48.900;9.188;2023-01-15T06:14:15;7.50;1.00
38239;DHT22;24035;48.900;9.188;2023-01-15T06:16:41;7.50;1.00
38239;DHT22;24035;48.900;9.188;2023-01-15T06:19:07;7.40;90.00
38239;DHT22;24035;48.900;9.188;2023-01-15T06:21:34;7.40;99.90
38239;DHT22;24035;48.900;9.188;2023-01-15T06:24:00;7.40;99.90
38239;DHT22;24035;48.900;9.188;2023-01-15T06:26:26;7.40;99.90
38239;DHT22;24035;48.900;9.188;2023-01-15T06:28:52;7.30;99.90
38239;DHT22;24035;48.900;9.188;2023-01-15T06:31:20;7.30;1.00
38239;DHT22;24035;48.900;9.188;2023-01-15T06:33:46;7.30;99.90
38239;DHT22;24035;48.900;9.188;2023-01-15T06:36:14;7.30;99.90
38239;DHT22;24035;48.900;9.188;2023-01-15T06:38:41;7.30;1.00
38239;DHT22;24035;48.900;9.188;2023-01-15T06:41:13;7.20;1.00
38239;DHT22;24035;48.900;9.188;2023-01-15T06:43:57;7.20;99.90
38239;DHT22;24035;48.900;9.188;2023-01-15T06:46:47;7.10;1.00
38239;DHT22;24035;48.900;9.188;2023-01-15T06:49:32;7.00;99.90
38239;DHT22;24035;48.900;9.188;2023-01-15T06:51:59;6.90;1.00
38239;DHT22;24035;48.900;9.188;2023-01-15T06:54:25;6.80;1.00
38239;DHT22;24035;48.900;9.188;2023-01-15T06:56:51;6.70;1.00
38239;DHT22;24035;48.900;9.188;2023-01-15T06:59:17;6.60;1.00
38239;DHT22;24035;48.900;9.188;2023-01-15T07:01:43;6.70;90.90
38239;DHT22;24035;48.900;9.188;2023-01-15T07:04:08;6.60;99.90
38239;DHT22;24035;48.900;9.188;2023-01-15T07:06:34;6.50;99.90
38239;DHT22;24035;48.900;9.188;2023-01-15T07:09:00;6.40;99.90
38239;DHT22;24035;48.900;9.188;2023-01-15T07:11:26;6.40;99.90
38239;DHT22;24035;48.900;9.188;2023-01-15T07:13:51;6.40;99.90
38239;DHT22;24035;48.900;9.188;2023-01-15T07:16:31;6.30;99.90
38239;DHT22;24035;48.900;9.188;2023-01-15T07:18:57;6.30;76.80
38239;DHT22;24035;48.900;9.188;2023-01-15T07:21:22;6.20;1.00
38239;DHT22;24035;48.900;9.188;2023-01-15T07:23:48;6.20;99.90
38239;DHT22;24035;48.900;9.188;2023-01-15T07:26:14;6.20;1.00
38239;DHT22;24035;48.900;9.188;2023-01-15T07:28:39;6.10;1.00
38239;DHT22;24035;48.900;9.188;2023-01-15T07:31:05;6.00;1.00
38239;DHT22;24035;48.900;9.188;2023-01-15T07:33:31;6.00;1.00
38239;DHT22;24035;48.900;9.188;2023-01-15T07:35:57;5.90;1.00
38239;DHT22;24035;48.900;9.188;2023-01-15T07:38:22;5.90;99.90
38239;DHT22;24035;48.900;9.188;2023-01-15T07:40:48;5.80;99.90
38239;DHT22;24035;48.900;9.188;2023-01-15T07:43:34;5.80;99.90
38239;DHT22;24035;48.900;9.188;2023-01-15T07:46:18;5.80;99.90
38239;DHT22;24035;48.900;9.188;2023-01-15T07:49:07;5.80;99.90
38239;DHT22;24035;48.900;9.188;2023-01-15T07:51:52;5.80;99.90
38239;DHT22;24035;48.900;9.188;2023-01-15T07:54:17;5.80;99.90
38239;DHT22;24035;48.900;9.188;2023-01-15T07:56:43;5.70;1.00
38239;DHT22;24035;48.900;9.188;2023-01-15T07:59:08;5.70;1.00
38239;DHT22;24035;48.900;9.188;2023-01-15T08:01:34;5.80;99.90
38239;DHT22;24035;48.900;9.188;2023-01-15T08:03:59;5.70;99.90
38239;DHT22;24035;48.900;9.188;2023-01-15T08:06:25;5.70;1.00
38239;DHT22;24035;48.900;9.188;2023-01-15T08:08:51;5.70;1.00
38239;DHT22;24035;48.900;9.188;2023-01-15T08:11:16;5.80;1.00
38239;DHT22;24035;48.900;9.188;2023-01-15T08:14:00;5.80;1.00
38239;DHT22;24035;48.900;9.188;2023-01-15T08:16:45;5.80;1.00
38239;DHT22;24035;48.900;9.188;2023-01-15T08:19:10;5.80;1.00
38239;DHT22;24035;48.900;9.188;2023-01-15T08:21:36;5.80;1.00
38239;DHT22;24035;48.900;9.188;2023-01-15T08:24:02;5.80;1.00
38239;DHT22;24035;48.900;9.188;2023-01-15T08:26:27;5.80;1.00
38239;DHT22;24035;48.900;9.188;2023-01-15T08:28:53;5.90;99.90
38239;DHT22;24035;48.900;9.188;2023-01-15T08:31:18;5.90;99.90
38239;DHT22;24035;48.900;9.188;2023-01-15T08:33:44;5.90;99.90
38239;DHT22;24035;48.900;9.188;2023-01-15T08:36:10;5.90;99.90
38239;DHT22;24035;48.900;9.188;2023-01-15T08:38:35;5.90;99.90
38239;DHT22;24035;48.900;9.188;2023-01-15T08:41:01;5.90;1.00
38239;DHT22;24035;48.900;9.188;2023-01-15T08:43:30;5.90;99.90
38239;DHT22;24035;48.900;9.188;2023-01-15T08:45:59;5.90;99.90
38239;DHT22;24035;48.900;9.188;2023-01-15T08:48:26;5.80;1.00
38239;DHT22;24035;48.900;9.188;2023-01-15T08:50:52;5.80;1.00
38239;DHT22;24035;48.900;9.188;2023-01-15T08:53:18;5.70;1.00
38239;DHT22;24035;48.900;9.188;2023-01-15T08:55:47;5.70;1.00
38239;DHT22;24035;48.900;9.188;2023-01-15T08:58:14;5.70;1.00
38239;DHT22;24035;48.900;9.188;2023-01-15T09:00:40;5.60;1.00
38239;DHT22;24035;48.900;9.188;2023-01-15T09:03:06;5.60;99.90
38239;DHT22;24035;48.900;9.188;2023-01-15T09:05:32;5.60;1.00
38239;DHT22;24035;48.900;9.188;2023-01-15T09:07:58;5.60;1.00
38239;DHT22;24035;48.900;9.188;2023-01-15T09:10:24;5.60;1.00
38239;DHT22;24035;48.900;9.188;2023-01-15T09:12:49;5.50;1.00
38239;DHT22;24035;48.900;9.188;2023-01-15T09:15:16;5.50;1.00
38239;DHT22;24035;48.900;9.188;2023-01-15T09:17:42;5.50;1.00
38239;DHT22;24035;48.900;9.188;2023-01-15T09:20:09;5.50;99.90
38239;DHT22;24035;48.900;9.188;2023-01-15T09:22:35;5.50;98.80
38239;DHT22;24035;48.900;9.188;2023-01-15T09:25:02;5.50;44.70
38239;DHT22;24035;48.900;9.188;2023-01-15T09:27:28;5.50;1.00
38239;DHT22;24035;48.900;9.188;2023-01-15T09:29:54;5.40;1.00
38239;DHT22;24035;48.900;9.188;2023-01-15T09:32:20;5.40;1.00
38239;DHT22;24035;48.900;9.188;2023-01-15T09:34:46;5.40;1.00
38239;DHT22;24035;48.900;9.188;2023-01-15T09:37:11;5.40;1.00
38239;DHT22;24035;48.900;9.188;2023-01-15T09:39:39;5.50;99.90
38239;DHT22;24035;48.900;9.188;2023-01-15T09:42:44;5.60;99.90
38239;DHT22;24035;48.900;9.188;2023-01-15T09:50:47;5.60;99.90
38239;DHT22;24035;48.900;9.188;2023-01-15T09:55:51;5.50;1.00
38239;DHT22;24035;48.900;9.188;2023-01-15T09:58:22;5.50;1.00
38239;DHT22;24035;48.900;9.188;2023-01-15T10:00:50;5.50;1.00
38239;DHT22;24035;48.900;9.188;2023-01-15T10:03:42;5.60;1.00
38239;DHT22;24035;48.900;9.188;2023-01-15T10:08:41;5.50;1.00
38239;DHT22;24035;48.900;9.188;2023-01-15T10:13:59;5.40;1.00
38239;DHT22;24035;48.900;9.188;2023-01-15T10:16:28;5.40;1.00
38239;DHT22;24035;48.900;9.188;2023-01-15T10:18:56;5.40;99.90
38239;DHT22;24035;48.900;9.188;2023-01-15T10:22:06;5.30;57.00
38239;DHT22;24035;48.900;9.188;2023-01-15T10:24:39;5.30;99.90
38239;DHT22;24035;48.900;9.188;2023-01-15T10:27:17;5.30;1.00
38239;DHT22;24035;48.900;9.188;2023-01-15T10:29:48;5.30;1.00
38239;DHT22;24035;48.900;9.188;2023-01-15T10:32:40;5.20;1.00
38239;DHT22;24035;48.900;9.188;2023-01-15T10:46:10;5.00;99.90
38239;DHT22;24035;48.900;9.188;2023-01-15T10:48:51;4.90;99.90
38239;DHT22;24035;48.900;9.188;2023-01-15T10:51:29;4.80;99.90
38239;DHT22;24035;48.900;9.188;2023-01-15T10:54:16;4.70;99.90
38239;DHT22;24035;48.900;9.188;2023-01-15T10:57:10;4.60;99.90
38239;DHT22;24035;48.900;9.188;2023-01-15T10:59:56;4.50;99.90
38239;DHT22;24035;48.900;9.188;2023-01-15T11:02:42;4.50;1.00
38239;DHT22;24035;48.900;9.188;2023-01-15T11:05:17;4.50;1.00
38239;DHT22;24035;48.900;9.188;2023-01-15T11:07:49;4.50;1.00
38239;DHT22;24035;48.900;9.188;2023-01-15T11:10:19;4.40;1.00
38239;DHT22;24035;48.900;9.188;2023-01-15T11:12:57;4.40;1.00
38239;DHT22;24035;48.900;9.188;2023-01-15T11:15:47;4.40;99.90
38239;DHT22;24035;48.900;9.188;2023-01-15T11:18:35;4.40;94.30
38239;DHT22;24035;48.900;9.188;2023-01-15T11:21:22;4.40;99.90
38239;DHT22;24035;48.900;9.188;2023-01-15T11:23:48;4.40;1.00
38239;DHT22;24035;48.900;9.188;2023-01-15T11:26:22;4.40;1.00
38239;DHT22;24035;48.900;9.188;2023-01-15T11:28:48;4.40;1.00
38239;DHT22;24035;48.900;9.188;2023-01-15T11:31:15;4.30;1.00
38239;DHT22;24035;48.900;9.188;2023-01-15T11:34:02;4.20;1.00
38239;DHT22;24035;48.900;9.188;2023-01-15T11:36:30;4.10;1.00
38239;DHT22;24035;48.900;9.188;2023-01-15T11:38:56;4.10;1.00
38239;DHT22;24035;48.900;9.188;2023-01-15T11:44:11;4.00;1.00
38239;DHT22;24035;48.900;9.188;2023-01-15T11:46:55;4.00;1.00
38239;DHT22;24035;48.900;9.188;2023-01-15T11:49:49;4.00;1.00
38239;DHT22;24035;48.900;9.188;2023-01-15T11:52:36;4.00;1.00
38239;DHT22;24035;48.900;9.188;2023-01-15T11:55:10;3.90;1.00
38239;DHT22;24035;48.900;9.188;2023-01-15T11:57:38;3.90;1.00
38239;DHT22;24035;48.900;9.188;2023-01-15T12:00:05;3.90;1.00
38239;DHT22;24035;48.900;9.188;2023-01-15T12:02:37;3.80;99.90
38239;DHT22;24035;48.900;9.188;2023-01-15T12:05:24;3.90;99.90
38239;DHT22;24035;48.900;9.188;2023-01-15T12:07:52;3.90;99.90
38239;DHT22;24035;48.900;9.188;2023-01-15T12:10:23;3.90;99.90
38239;DHT22;24035;48.900;9.188;2023-01-15T12:21:33;4.10;1.00
38239;DHT22;24035;48.900;9.188;2023-01-15T12:24:42;4.10;99.90
38239;DHT22;24035;48.900;9.188;2023-01-15T12:36:10;4.40;1.00
38239;DHT22;24035;48.900;9.188;2023-01-15T12:41:35;4.60;99.90
38239;DHT22;24035;48.900;9.188;2023-01-15T12:50:39;4.70;1.00
38239;DHT22;24035;48.900;9.188;2023-01-15T12:55:45;4.80;1.00
38239;DHT22;24035;48.900;9.188;2023-01-15T12:58:40;4.90;1.00
38239;DHT22;24035;48.900;9.188;2023-01-15T13:04:38;5.00;1.00
38239;DHT22;24035;48.900;9.188;2023-01-15T13:07:16;5.10;1.00
38239;DHT22;24035;48.900;9.188;2023-01-15T13:09:55;5.10;1.00
38239;DHT22;24035;48.900;9.188;2023-01-15T13:12:23;5.20;1.00
38239;DHT22;24035;48.900;9.188;2023-01-15T13:14:49;5.30;1.00
38239;DHT22;24035;48.900;9.188;2023-01-15T13:20:38;5.40;99.90
38239;DHT22;24035;48.900;9.188;2023-01-15T13:23:08;5.40;1.00
38239;DHT22;24035;48.900;9.188;2023-01-15T13:34:01;5.50;99.90
38239;DHT22;24035;48.900;9.188;2023-01-15T13:36:38;5.50;99.90
38239;DHT22;24035;48.900;9.188;2023-01-15T13:39:06;5.50;99.90
38239;DHT22;24035;48.900;9.188;2023-01-15T13:41:35;5.40;99.90
38239;DHT22;24035;48.900;9.188;2023-01-15T13:44:30;5.30;99.90
38239;DHT22;24035;48.900;9.188;2023-01-15T13:47:08;5.20;99.90
38239;DHT22;24035;48.900;9.188;2023-01-15T13:49:40;5.10;99.90
38239;DHT22;24035;48.900;9.188;2023-01-15T13:52:16;5.10;99.90
38239;DHT22;24035;48.900;9.188;2023-01-15T13:54:44;5.10;41.60
38239;DHT22;24035;48.900;9.188;2023-01-15T13:57:32;5.10;70.80
38239;DHT22;24035;48.900;9.188;2023-01-15T13:59:59;5.10;1.00
38239;DHT22;24035;48.900;9.188;2023-01-15T14:02:33;5.10;1.00
38239;DHT22;24035;48.900;9.188;2023-01-15T14:05:33;5.10;1.00
38239;DHT22;24035;48.900;9.188;2023-01-15T14:07:59;5.10;1.00
38239;DHT22;24035;48.900;9.188;2023-01-15T14:13:08;5.20;1.00
38239;DHT22;24035;48.900;9.188;2023-01-15T14:18:27;5.20;1.00
38239;DHT22;24035;48.900;9.188;2023-01-15T14:24:13;5.40;1.00
38239;DHT22;24035;48.900;9.188;2023-01-15T14:29:52;5.40;1.00
38239;DHT22;24035;48.900;9.188;2023-01-15T14:34:58;5.50;1.00
38239;DHT22;24035;48.900;9.188;2023-01-15T14:37:38;5.50;99.90
38239;DHT22;24035;48.900;9.188;2023-01-15T14:40:18;5.50;99.90
38239;DHT22;24035;48.900;9.188;2023-01-15T14:42:48;5.50;99.90
38239;DHT22;24035;48.900;9.188;2023-01-15T14:45:40;5.50;99.90
38239;DHT22;24035;48.900;9.188;2023-01-15T14:50:52;5.40;99.90
38239;DHT22;24035;48.900;9.188;2023-01-15T14:53:33;5.30;1.00
38239;DHT22;24035;48.900;9.188;2023-01-15T14:56:31;5.30;1.00
38239;DHT22;24035;48.900;9.188;2023-01-15T14:59:03;5.30;99.90
38239;DHT22;24035;48.900;9.188;2023-01-15T15:02:21;5.30;99.90
38239;DHT22;24035;48.900;9.188;2023-01-15T15:04:51;5.30;1.00
38239;DHT22;24035;48.900;9.188;2023-01-15T15:07:23;5.20;1.00
38239;DHT22;24035;48.900;9.188;2023-01-15T15:12:41;5.20;1.00
38239;DHT22;24035;48.900;9.188;2023-01-15T15:20:54;5.20;1.00
38239;DHT22;24035;48.900;9.188;2023-01-15T15:26:03;5.10;1.00
38239;DHT22;24035;48.900;9.188;2023-01-15T15:28:30;5.20;1.00
38239;DHT22;24035;48.900;9.188;2023-01-15T15:30:56;5.20;1.00
38239;DHT22;24035;48.900;9.188;2023-01-15T15:33:38;5.20;1.00
38239;DHT22;24035;48.900;9.188;2023-01-15T15:36:05;5.20;1.00
38239;DHT22;24035;48.900;9.188;2023-01-15T15:38:32;5.20;1.00
38239;DHT22;24035;48.900;9.188;2023-01-15T15:41:00;5.10;1.00
38239;DHT22;24035;48.900;9.188;2023-01-15T15:44:02;5.00;1.00
38239;DHT22;24035;48.900;9.188;2023-01-15T15:46:50;4.90;1.00
38239;DHT22;24035;48.900;9.188;2023-01-15T15:49:39;4.70;1.00
38239;DHT22;24035;48.900;9.188;2023-01-15T15:52:18;4.70;1.00
38239;DHT22;24035;48.900;9.188;2023-01-15T15:54:55;4.70;1.00
38239;DHT22;24035;48.900;9.188;2023-01-15T15:57:21;4.60;1.00
38239;DHT22;24035;48.900;9.188;2023-01-15T15:59:50;4.60;1.00
38239;DHT22;24035;48.900;9.188;2023-01-15T16:02:31;4.60;1.00
38239;DHT22;24035;48.900;9.188;2023-01-15T16:05:18;4.40;1.00
38239;DHT22;24035;48.900;9.188;2023-01-15T16:07:45;4.40;1.00
38239;DHT22;24035;48.900;9.188;2023-01-15T16:10:22;4.40;1.00
38239;DHT22;24035;48.900;9.188;2023-01-15T16:12:53;4.30;1.00
38239;DHT22;24035;48.900;9.188;2023-01-15T16:15:28;4.40;1.00
38239;DHT22;24035;48.900;9.188;2023-01-15T16:17:56;4.30;1.00
38239;DHT22;24035;48.900;9.188;2023-01-15T16:20:22;4.30;1.00
38239;DHT22;24035;48.900;9.188;2023-01-15T16:23:03;4.30;1.00
38239;DHT22;24035;48.900;9.188;2023-01-15T16:25:33;4.30;1.00
38239;DHT22;24035;48.900;9.188;2023-01-15T16:28:00;4.30;1.00
38239;DHT22;24035;48.900;9.188;2023-01-15T16:30:30;4.30;1.00
38239;DHT22;24035;48.900;9.188;2023-01-15T16:33:03;4.20;1.00
38239;DHT22;24035;48.900;9.188;2023-01-15T16:35:30;4.20;1.00
38239;DHT22;24035;48.900;9.188;2023-01-15T16:37:59;4.20;21.00
38239;DHT22;24035;48.900;9.188;2023-01-15T16:40:34;4.10;33.60
38239;DHT22;24035;48.900;9.188;2023-01-15T16:43:25;4.10;14.40
38239;DHT22;24035;48.900;9.188;2023-01-15T16:46:14;4.10;67.40
38239;DHT22;24035;48.900;9.188;2023-01-15T16:48:41;4.20;40.10
38239;DHT22;24035;48.900;9.188;2023-01-15T16:51:32;4.10;1.00
38239;DHT22;24035;48.900;9.188;2023-01-15T16:54:00;4.10;1.00
38239;DHT22;24035;48.900;9.188;2023-01-15T17:01:43;4.00;34.80
38239;DHT22;24035;48.900;9.188;2023-01-15T17:04:29;3.90;48.30
38239;DHT22;24035;48.900;9.188;2023-01-15T17:07:04;3.90;99.90
38239;DHT22;24035;48.900;9.188;2023-01-15T17:09:35;3.90;99.90
38239;DHT22;24035;48.900;9.188;2023-01-15T17:12:14;3.90;83.90
38239;DHT22;24035;48.900;9.188;2023-01-15T17:14:43;3.80;79.00
38239;DHT22;24035;48.900;9.188;2023-01-15T17:19:50;3.60;99.90
38239;DHT22;24035;48.900;9.188;2023-01-15T17:22:25;3.70;99.90
38239;DHT22;24035;48.900;9.188;2023-01-15T17:24:55;3.70;99.90
38239;DHT22;24035;48.900;9.188;2023-01-15T17:27:21;3.70;99.90
38239;DHT22;24035;48.900;9.188;2023-01-15T17:29:47;3.70;99.90
38239;DHT22;24035;48.900;9.188;2023-01-15T17:32:20;3.80;99.90
38239;DHT22;24035;48.900;9.188;2023-01-15T17:34:47;3.70;99.90
38239;DHT22;24035;48.900;9.188;2023-01-15T17:37:15;3.70;99.90
38239;DHT22;24035;48.900;9.188;2023-01-15T17:39:41;3.70;99.90
38239;DHT22;24035;48.900;9.188;2023-01-15T17:42:14;3.70;99.90
38239;DHT22;24035;48.900;9.188;2023-01-15T17:44:40;3.60;99.90
38239;DHT22;24035;48.900;9.188;2023-01-15T17:47:06;3.70;99.90
38239;DHT22;24035;48.900;9.188;2023-01-15T17:49:32;3.70;99.90
38239;DHT22;24035;48.900;9.188;2023-01-15T17:51:59;3.70;99.90
38239;DHT22;24035;48.900;9.188;2023-01-15T17:54:25;3.60;99.90
38239;DHT22;24035;48.900;9.188;2023-01-15T17:57:09;3.50;99.90
38239;DHT22;24035;48.900;9.188;2023-01-15T17:59:59;3.50;1.00
38239;DHT22;24035;48.900;9.188;2023-01-15T18:02:44;3.50;1.00
38239;DHT22;24035;48.900;9.188;2023-01-15T18:05:30;3.40;1.00
38239;DHT22;24035;48.900;9.188;2023-01-15T18:08:04;3.50;1.00
38239;DHT22;24035;48.900;9.188;2023-01-15T18:10:32;3.50;1.00
38239;DHT22;24035;48.900;9.188;2023-01-15T18:12:58;3.50;1.00
38239;DHT22;24035;48.900;9.188;2023-01-15T18:15:26;3.50;1.00
38239;DHT22;24035;48.900;9.188;2023-01-15T18:17:52;3.60;1.00
38239;DHT22;24035;48.900;9.188;2023-01-15T18:20:18;3.60;99.90
38239;DHT22;24035;48.900;9.188;2023-01-15T18:22:43;3.50;99.90
38239;DHT22;24035;48.900;9.188;2023-01-15T18:25:09;3.40;1.00
38239;DHT22;24035;48.900;9.188;2023-01-15T18:27:35;3.40;1.00